sensor_id;sensor_type;location;lat;lon;timestamp;temperature;humidity
18868;DHT22;9563;49.240;9.088;2022-09-25T00:01:40;13.00;99.90
18868;DHT22;9563;49.240;9.088;2022-09-25T00:04:08;13.00;99.90
18868;DHT22;9563;49.240;9.088;2022-09-25T00:06:36;13.00;99.90
18868;DHT22;9563;49.240;9.088;2022-09-25T00:09:05;12.90;99.90
18868;DHT22;9563;49.240;9.088;2022-09-25T00:11:33;12.90;99.90
18868;DHT22;9563;49.240;9.088;2022-09-25T00:14:03;12.90;99.90
18868;DHT22;9563;49.240;9.088;2022-09-25T00:16:31;12.90;99.90
18868;DHT22;9563;49.240;9.088;2022-09-25T00:18:58;12.90;99.90
18868;DHT22;9563;49.240;9.088;2022-09-25T00:21:45;12.90;99.90
18868;DHT22;9563;49.240;9.088;2022-09-25T00:24:18;12.90;99.90
18868;DHT22;9563;49.240;9.088;2022-09-25T00:26:45;12.90;99.90
18868;DHT22;9563;49.240;9.088;2022-09-25T00:29:15;12.90;99.90
18868;DHT22;9563;49.240;9.088;2022-09-25T00:31:42;12.90;99.90
18868;DHT22;9563;49.240;9.088;2022-09-25T00:34:09;12.90;99.90
18868;DHT22;9563;49.240;9.088;2022-09-25T00:36:36;12.90;99.90
18868;DHT22;9563;49.240;9.088;2022-09-25T00:39:05;13.00;99.90
18868;DHT22;9563;49.240;9.088;2022-09-25T00:41:31;13.00;99.90
18868;DHT22;9563;49.240;9.088;2022-09-25T00:44:00;13.00;99.90
18868;DHT22;9563;49.240;9.088;2022-09-25T00:46:30;13.00;99.90
18868;DHT22;9563;49.240;9.088;2022-09-25T00:49:00;13.00;99.90
18868;DHT22;9563;49.240;9.088;2022-09-25T00:51:32;13.00;99.90
18868;DHT22;9563;49.240;9.088;2022-09-25T00:54:11;13.00;99.90
18868;DHT22;9563;49.240;9.088;2022-09-25T00:56:42;13.00;99.90
18868;DHT22;9563;49.240;9.088;2022-09-25T00:59:13;13.00;99.90
18868;DHT22;9563;49.240;9.088;2022-09-25T01:01:41;13.10;99.90
18868;DHT22;9563;49.240;9.088;2022-09-25T01:04:09;13.00;99.90
18868;DHT22;9563;49.240;9.088;2022-09-25T01:06:38;13.00;99.90
18868;DHT22;9563;49.240;9.088;2022-09-25T01:09:06;13.00;99.90
18868;DHT22;9563;49.240;9.088;2022-09-25T01:11:34;13.00;99.90
18868;DHT22;9563;49.240;9.088;2022-09-25T01:14:02;13.00;99.90
18868;DHT22;9563;49.240;9.088;2022-09-25T01:16:35;13.10;99.90
18868;DHT22;9563;49.240;9.088;2022-09-25T01:19:11;13.10;99.90
18868;DHT22;9563;49.240;9.088;2022-09-25T01:21:43;13.10;99.90
18868;DHT22;9563;49.240;9.088;2022-09-25T01:24:42;13.00;99.90
18868;DHT22;9563;49.240;9.088;2022-09-25T01:27:29;13.00;99.90
18868;DHT22;9563;49.240;9.088;2022-09-25T01:30:05;13.00;99.90
18868;DHT22;9563;49.240;9.088;2022-09-25T01:32:37;13.00;99.90
18868;DHT22;9563;49.240;9.088;2022-09-25T01:35:11;13.00;99.90
18868;DHT22;9563;49.240;9.088;2022-09-25T01:37:43;13.00;99.90
18868;DHT22;9563;49.240;9.088;2022-09-25T01:40:14;13.10;99.90
18868;DHT22;9563;49.240;9.088;2022-09-25T01:42:44;13.00;99.90
18868;DHT22;9563;49.240;9.088;2022-09-25T01:45:19;13.00;99.90
18868;DHT22;9563;49.240;9.088;2022-09-25T01:47:48;13.00;99.90
18868;DHT22;9563;49.240;9.088;2022-09-25T01:50:22;13.00;99.90
18868;DHT22;9563;49.240;9.088;2022-09-25T01:52:53;13.00;99.90
18868;DHT22;9563;49.240;9.088;2022-09-25T01:55:26;13.00;99.90
18868;DHT22;9563;49.240;9.088;2022-09-25T01:58:00;13.00;99.90
18868;DHT22;9563;49.240;9.088;2022-09-25T02:00:31;13.00;99.90
18868;DHT22;9563;49.240;9.088;2022-09-25T02:03:01;13.00;99.90
18868;DHT22;9563;49.240;9.088;2022-09-25T02:05:35;13.00;99.90
18868;DHT22;9563;49.240;9.088;2022-09-25T02:08:06;12.90;99.90
18868;DHT22;9563;49.240;9.088;2022-09-25T02:10:35;12.90;99.90
18868;DHT22;9563;49.240;9.088;2022-09-25T02:13:06;12.90;99.90
18868;DHT22;9563;49.240;9.088;2022-09-25T02:15:37;12.90;99.90
18868;DHT22;9563;49.240;9.088;2022-09-25T02:18:08;12.90;99.90
18868;DHT22;9563;49.240;9.088;2022-09-25T02:21:00;12.90;99.90
18868;DHT22;9563;49.240;9.088;2022-09-25T02:23:35;12.90;99.90
18868;DHT22;9563;49.240;9.088;2022-09-25T02:26:13;12.80;99.90
18868;DHT22;9563;49.240;9.088;2022-09-25T02:28:42;12.80;99.90
18868;DHT22;9563;49.240;9.088;2022-09-25T02:31:11;12.80;99.90
18868;DHT22;9563;49.240;9.088;2022-09-25T02:33:39;12.80;99.90
18868;DHT22;9563;49.240;9.088;2022-09-25T02:36:06;12.80;99.90
18868;DHT22;9563;49.240;9.088;2022-09-25T02:38:34;12.90;99.90
18868;DHT22;9563;49.240;9.088;2022-09-25T02:41:06;12.80;99.90
18868;DHT22;9563;49.240;9.088;2022-09-25T02:43:45;12.80;99.90
18868;DHT22;9563;49.240;9.088;2022-09-25T02:46:23;12.80;99.90
18868;DHT22;9563;49.240;9.088;2022-09-25T02:49:00;12.90;99.90
18868;DHT22;9563;49.240;9.088;2022-09-25T02:51:34;12.90;99.90
18868;DHT22;9563;49.240;9.088;2022-09-25T02:54:07;12.90;99.90
18868;DHT22;9563;49.240;9.088;2022-09-25T02:56:40;12.90;99.90
18868;DHT22;9563;49.240;9.088;2022-09-25T02:59:13;12.90;99.90
18868;DHT22;9563;49.240;9.088;2022-09-25T03:01:43;12.90;99.90
18868;DHT22;9563;49.240;9.088;2022-09-25T03:04:12;13.00;99.90
18868;DHT22;9563;49.240;9.088;2022-09-25T03:06:40;13.00;99.90
18868;DHT22;9563;49.240;9.088;2022-09-25T03:09:08;12.90;99.90
18868;DHT22;9563;49.240;9.088;2022-09-25T03:11:36;13.00;99.90
18868;DHT22;9563;49.240;9.088;2022-09-25T03:14:08;13.00;99.90
18868;DHT22;9563;49.240;9.088;2022-09-25T03:16:43;13.00;99.90
18868;DHT22;9563;49.240;9.088;2022-09-25T03:19:12;13.00;99.90
18868;DHT22;9563;49.240;9.088;2022-09-25T03:21:39;13.00;99.90
18868;DHT22;9563;49.240;9.088;2022-09-25T03:24:06;13.00;99.90
18868;DHT22;9563;49.240;9.088;2022-09-25T03:26:33;12.90;99.90
18868;DHT22;9563;49.240;9.088;2022-09-25T03:29:00;13.00;99.90
18868;DHT22;9563;49.240;9.088;2022-09-25T03:31:27;13.00;99.90
18868;DHT22;9563;49.240;9.088;2022-09-25T03:33:57;13.00;99.90
18868;DHT22;9563;49.240;9.088;2022-09-25T03:36:25;13.00;99.90
18868;DHT22;9563;49.240;9.088;2022-09-25T03:38:53;13.10;99.90
18868;DHT22;9563;49.240;9.088;2022-09-25T03:41:22;13.00;99.90
18868;DHT22;9563;49.240;9.088;2022-09-25T03:43:50;13.00;99.90
18868;DHT22;9563;49.240;9.088;2022-09-25T03:46:20;13.10;99.90
18868;DHT22;9563;49.240;9.088;2022-09-25T03:48:47;13.10;99.90
18868;DHT22;9563;49.240;9.088;2022-09-25T03:51:16;13.10;99.90
18868;DHT22;9563;49.240;9.088;2022-09-25T03:53:43;13.10;99.90
18868;DHT22;9563;49.240;9.088;2022-09-25T03:56:13;13.10;99.90
18868;DHT22;9563;49.240;9.088;2022-09-25T03:58:41;13.10;99.90
18868;DHT22;9563;49.240;9.088;2022-09-25T04:01:09;13.10;99.90
18868;DHT22;9563;49.240;9.088;2022-09-25T04:03:36;13.10;99.90
18868;DHT22;9563;49.240;9.088;2022-09-25T04:06:05;13.10;99.90
18868;DHT22;9563;49.240;9.088;2022-09-25T04:08:35;13.10;99.90
18868;DHT22;9563;49.240;9.088;2022-09-25T04:11:02;13.10;99.90
18868;DHT22;9563;49.240;9.088;2022-09-25T04:13:31;13.10;99.90
18868;DHT22;9563;49.240;9.088;2022-09-25T04:16:00;13.10;99.90
18868;DHT22;9563;49.240;9.088;2022-09-25T04:18:28;13.10;99.90
18868;DHT22;9563;49.240;9.088;2022-09-25T04:20:56;13.10;99.90
18868;DHT22;9563;49.240;9.088;2022-09-25T04:23:23;13.10;99.90
18868;DHT22;9563;49.240;9.088;2022-09-25T04:25:52;13.10;99.90
18868;DHT22;9563;49.240;9.088;2022-09-25T04:28:19;13.10;99.90
18868;DHT22;9563;49.240;9.088;2022-09-25T04:30:46;13.10;99.90
18868;DHT22;9563;49.240;9.088;2022-09-25T04:33:14;13.10;99.90
18868;DHT22;9563;49.240;9.088;2022-09-25T04:35:58;13.10;99.90
18868;DHT22;9563;49.240;9.088;2022-09-25T04:38:25;13.10;99.90
18868;DHT22;9563;49.240;9.088;2022-09-25T04:40:54;13.10;99.90
18868;DHT22;9563;49.240;9.088;2022-09-25T04:43:22;13.10;99.90
18868;DHT22;9563;49.240;9.088;2022-09-25T04:45:49;13.10;99.90
18868;DHT22;9563;49.240;9.088;2022-09-25T04:48:16;13.10;99.90
18868;DHT22;9563;49.240;9.088;2022-09-25T04:50:47;13.20;99.90
18868;DHT22;9563;49.240;9.088;2022-09-25T04:53:16;13.20;99.90
18868;DHT22;9563;49.240;9.088;2022-09-25T04:55:43;13.10;99.90
18868;DHT22;9563;49.240;9.088;2022-09-25T04:58:12;13.20;99.90
18868;DHT22;9563;49.240;9.088;2022-09-25T05:00:38;13.10;99.90
18868;DHT22;9563;49.240;9.088;2022-09-25T05:03:07;13.20;99.90
18868;DHT22;9563;49.240;9.088;2022-09-25T05:05:34;13.20;99.90
18868;DHT22;9563;49.240;9.088;2022-09-25T05:08:02;13.20;99.90
18868;DHT22;9563;49.240;9.088;2022-09-25T05:10:31;13.20;99.90
18868;DHT22;9563;49.240;9.088;2022-09-25T05:13:00;13.20;99.90
18868;DHT22;9563;49.240;9.088;2022-09-25T05:15:30;13.20;99.90
18868;DHT22;9563;49.240;9.088;2022-09-25T05:18:02;13.20;99.90
18868;DHT22;9563;49.240;9.088;2022-09-25T05:20:29;13.20;99.90
18868;DHT22;9563;49.240;9.088;2022-09-25T05:22:57;13.30;99.90
18868;DHT22;9563;49.240;9.088;2022-09-25T05:25:24;13.20;99.90
18868;DHT22;9563;49.240;9.088;2022-09-25T05:27:52;13.20;99.90
18868;DHT22;9563;49.240;9.088;2022-09-25T05:30:20;13.20;99.90
18868;DHT22;9563;49.240;9.088;2022-09-25T05:32:49;13.20;99.90
18868;DHT22;9563;49.240;9.088;2022-09-25T05:35:16;13.20;99.90
18868;DHT22;9563;49.240;9.088;2022-09-25T05:37:43;13.20;99.90
18868;DHT22;9563;49.240;9.088;2022-09-25T05:40:11;13.20;99.90
18868;DHT22;9563;49.240;9.088;2022-09-25T05:42:40;13.20;99.90
18868;DHT22;9563;49.240;9.088;2022-09-25T05:45:08;13.20;99.90
18868;DHT22;9563;49.240;9.088;2022-09-25T05:47:35;13.20;99.90
18868;DHT22;9563;49.240;9.088;2022-09-25T05:50:05;13.20;99.90
18868;DHT22;9563;49.240;9.088;2022-09-25T05:52:32;13.20;99.90
18868;DHT22;9563;49.240;9.088;2022-09-25T05:54:58;13.20;99.90
18868;DHT22;9563;49.240;9.088;2022-09-25T05:57:29;13.20;99.90
18868;DHT22;9563;49.240;9.088;2022-09-25T05:59:56;13.10;99.90
18868;DHT22;9563;49.240;9.088;2022-09-25T06:02:23;13.10;99.90
18868;DHT22;9563;49.240;9.088;2022-09-25T06:04:50;13.10;99.90
18868;DHT22;9563;49.240;9.088;2022-09-25T06:07:19;13.10;99.90
18868;DHT22;9563;49.240;9.088;2022-09-25T06:09:46;13.10;99.90
18868;DHT22;9563;49.240;9.088;2022-09-25T06:12:13;13.10;99.90
18868;DHT22;9563;49.240;9.088;2022-09-25T06:14:40;13.10;99.90
18868;DHT22;9563;49.240;9.088;2022-09-25T06:17:07;13.10;99.90
18868;DHT22;9563;49.240;9.088;2022-09-25T06:19:34;13.10;99.90
18868;DHT22;9563;49.240;9.088;2022-09-25T06:22:01;13.10;99.90
18868;DHT22;9563;49.240;9.088;2022-09-25T06:24:29;13.10;99.90
18868;DHT22;9563;49.240;9.088;2022-09-25T06:26:56;13.10;99.90
18868;DHT22;9563;49.240;9.088;2022-09-25T06:29:23;13.00;99.90
18868;DHT22;9563;49.240;9.088;2022-09-25T06:31:51;13.00;99.90
18868;DHT22;9563;49.240;9.088;2022-09-25T06:34:18;13.00;99.90
18868;DHT22;9563;49.240;9.088;2022-09-25T06:36:45;13.00;99.90
18868;DHT22;9563;49.240;9.088;2022-09-25T06:39:11;13.00;99.90
18868;DHT22;9563;49.240;9.088;2022-09-25T06:41:40;13.00;99.90
18868;DHT22;9563;49.240;9.088;2022-09-25T06:44:06;13.00;99.90
18868;DHT22;9563;49.240;9.088;2022-09-25T06:46:33;13.00;99.90
18868;DHT22;9563;49.240;9.088;2022-09-25T06:49:00;13.00;99.90
18868;DHT22;9563;49.240;9.088;2022-09-25T06:51:27;13.00;99.90
18868;DHT22;9563;49.240;9.088;2022-09-25T06:53:57;13.00;99.90
18868;DHT22;9563;49.240;9.088;2022-09-25T06:56:24;13.10;99.90
18868;DHT22;9563;49.240;9.088;2022-09-25T06:58:52;13.10;99.90
18868;DHT22;9563;49.240;9.088;2022-09-25T07:01:19;13.10;99.90
18868;DHT22;9563;49.240;9.088;2022-09-25T07:03:46;13.10;99.90
18868;DHT22;9563;49.240;9.088;2022-09-25T07:06:15;13.10;99.90
18868;DHT22;9563;49.240;9.088;2022-09-25T07:08:43;13.20;99.90
18868;DHT22;9563;49.240;9.088;2022-09-25T07:11:14;13.10;99.90
18868;DHT22;9563;49.240;9.088;2022-09-25T07:13:41;13.10;99.90
18868;DHT22;9563;49.240;9.088;2022-09-25T07:16:12;13.10;99.90
18868;DHT22;9563;49.240;9.088;2022-09-25T07:18:39;13.10;99.90
18868;DHT22;9563;49.240;9.088;2022-09-25T07:21:10;13.10;99.90
18868;DHT22;9563;49.240;9.088;2022-09-25T07:23:38;13.10;99.90
18868;DHT22;9563;49.240;9.088;2022-09-25T07:26:07;13.10;99.90
18868;DHT22;9563;49.240;9.088;2022-09-25T07:28:35;13.10;99.90
18868;DHT22;9563;49.240;9.088;2022-09-25T07:31:15;13.20;99.90
18868;DHT22;9563;49.240;9.088;2022-09-25T07:33:42;13.20;99.90
18868;DHT22;9563;49.240;9.088;2022-09-25T07:36:09;13.20;99.90
18868;DHT22;9563;49.240;9.088;2022-09-25T07:38:36;13.10;99.90
18868;DHT22;9563;49.240;9.088;2022-09-25T07:41:04;13.10;99.90
18868;DHT22;9563;49.240;9.088;2022-09-25T07:43:32;13.20;99.90
18868;DHT22;9563;49.240;9.088;2022-09-25T07:45:59;13.10;99.90
18868;DHT22;9563;49.240;9.088;2022-09-25T07:48:30;13.10;99.90
18868;DHT22;9563;49.240;9.088;2022-09-25T07:50:59;13.20;99.90
18868;DHT22;9563;49.240;9.088;2022-09-25T07:53:26;13.10;99.90
18868;DHT22;9563;49.240;9.088;2022-09-25T07:55:55;13.10;99.90
18868;DHT22;9563;49.240;9.088;2022-09-25T07:58:22;13.20;99.90
18868;DHT22;9563;49.240;9.088;2022-09-25T08:00:49;13.20;99.90
18868;DHT22;9563;49.240;9.088;2022-09-25T08:03:16;13.20;99.90
18868;DHT22;9563;49.240;9.088;2022-09-25T08:05:44;13.20;99.90
18868;DHT22;9563;49.240;9.088;2022-09-25T08:08:11;13.30;99.90
18868;DHT22;9563;49.240;9.088;2022-09-25T08:10:38;13.40;99.90
18868;DHT22;9563;49.240;9.088;2022-09-25T08:13:05;13.40;99.90
18868;DHT22;9563;49.240;9.088;2022-09-25T08:15:32;13.40;99.90
18868;DHT22;9563;49.240;9.088;2022-09-25T08:17:58;13.30;99.90
18868;DHT22;9563;49.240;9.088;2022-09-25T08:20:25;13.30;99.90
18868;DHT22;9563;49.240;9.088;2022-09-25T08:22:54;13.30;99.90
18868;DHT22;9563;49.240;9.088;2022-09-25T08:25:21;13.30;99.90
18868;DHT22;9563;49.240;9.088;2022-09-25T08:27:48;13.20;99.90
18868;DHT22;9563;49.240;9.088;2022-09-25T08:30:16;13.20;99.90
18868;DHT22;9563;49.240;9.088;2022-09-25T08:32:43;13.20;99.90
18868;DHT22;9563;49.240;9.088;2022-09-25T08:35:10;13.20;99.90
18868;DHT22;9563;49.240;9.088;2022-09-25T08:37:40;13.10;99.90
18868;DHT22;9563;49.240;9.088;2022-09-25T08:40:15;13.10;99.90
18868;DHT22;9563;49.240;9.088;2022-09-25T08:42:45;13.10;99.90
18868;DHT22;9563;49.240;9.088;2022-09-25T08:45:22;13.00;99.90
18868;DHT22;9563;49.240;9.088;2022-09-25T08:48:17;13.00;99.90
18868;DHT22;9563;49.240;9.088;2022-09-25T08:51:02;13.10;99.90
18868;DHT22;9563;49.240;9.088;2022-09-25T08:53:32;13.10;99.90
18868;DHT22;9563;49.240;9.088;2022-09-25T08:56:02;13.10;99.90
18868;DHT22;9563;49.240;9.088;2022-09-25T08:58:58;13.10;99.90
18868;DHT22;9563;49.240;9.088;2022-09-25T09:01:29;13.20;99.90
18868;DHT22;9563;49.240;9.088;2022-09-25T09:04:02;13.20;99.90
18868;DHT22;9563;49.240;9.088;2022-09-25T09:06:31;13.20;99.90
18868;DHT22;9563;49.240;9.088;2022-09-25T09:09:04;13.20;99.90
18868;DHT22;9563;49.240;9.088;2022-09-25T09:11:35;13.10;99.90
18868;DHT22;9563;49.240;9.088;2022-09-25T09:14:05;13.20;99.90
18868;DHT22;9563;49.240;9.088;2022-09-25T09:16:36;13.10;99.90
18868;DHT22;9563;49.240;9.088;2022-09-25T09:19:05;13.20;99.90
18868;DHT22;9563;49.240;9.088;2022-09-25T09:21:35;13.20;99.90
18868;DHT22;9563;49.240;9.088;2022-09-25T09:24:10;13.20;99.90
18868;DHT22;9563;49.240;9.088;2022-09-25T09:27:13;13.30;99.90
18868;DHT22;9563;49.240;9.088;2022-09-25T09:29:55;13.30;99.90
18868;DHT22;9563;49.240;9.088;2022-09-25T09:35:32;13.40;99.90
18868;DHT22;9563;49.240;9.088;2022-09-25T09:38:12;13.40;99.90
18868;DHT22;9563;49.240;9.088;2022-09-25T09:40:57;13.40;99.90
18868;DHT22;9563;49.240;9.088;2022-09-25T09:43:52;13.40;99.90
18868;DHT22;9563;49.240;9.088;2022-09-25T09:46:26;13.30;99.90
18868;DHT22;9563;49.240;9.088;2022-09-25T09:49:04;13.30;99.90
18868;DHT22;9563;49.240;9.088;2022-09-25T09:51:37;13.20;99.90
18868;DHT22;9563;49.240;9.088;2022-09-25T09:54:10;13.20;99.90
18868;DHT22;9563;49.240;9.088;2022-09-25T09:56:41;13.20;99.90
18868;DHT22;9563;49.240;9.088;2022-09-25T09:59:14;13.30;99.90
18868;DHT22;9563;49.240;9.088;2022-09-25T10:01:44;13.30;99.90
18868;DHT22;9563;49.240;9.088;2022-09-25T10:04:15;13.40;99.90
18868;DHT22;9563;49.240;9.088;2022-09-25T10:06:46;13.40;99.90
18868;DHT22;9563;49.240;9.088;2022-09-25T10:09:16;13.50;99.90
18868;DHT22;9563;49.240;9.088;2022-09-25T10:11:45;13.30;99.90
18868;DHT22;9563;49.240;9.088;2022-09-25T10:14:17;13.30;99.90
18868;DHT22;9563;49.240;9.088;2022-09-25T10:16:48;13.30;99.90
18868;DHT22;9563;49.240;9.088;2022-09-25T10:19:18;13.30;99.90
18868;DHT22;9563;49.240;9.088;2022-09-25T10:21:50;13.30;99.90
18868;DHT22;9563;49.240;9.088;2022-09-25T10:24:50;13.30;99.90
18868;DHT22;9563;49.240;9.088;2022-09-25T10:27:21;13.40;99.90
18868;DHT22;9563;49.240;9.088;2022-09-25T10:30:05;13.40;99.90
18868;DHT22;9563;49.240;9.088;2022-09-25T10:32:47;13.40;99.90
18868;DHT22;9563;49.240;9.088;2022-09-25T10:35:18;13.40;99.90
18868;DHT22;9563;49.240;9.088;2022-09-25T10:37:47;13.40;99.90
18868;DHT22;9563;49.240;9.088;2022-09-25T10:40:28;13.50;99.90
18868;DHT22;9563;49.240;9.088;2022-09-25T10:43:13;13.60;99.90
18868;DHT22;9563;49.240;9.088;2022-09-25T10:45:42;13.80;99.90
18868;DHT22;9563;49.240;9.088;2022-09-25T10:48:26;13.80;99.90
18868;DHT22;9563;49.240;9.088;2022-09-25T10:51:12;13.90;99.90
18868;DHT22;9563;49.240;9.088;2022-09-25T10:53:42;13.90;99.90
18868;DHT22;9563;49.240;9.088;2022-09-25T10:56:12;14.00;99.90
18868;DHT22;9563;49.240;9.088;2022-09-25T10:58:42;14.20;99.90
18868;DHT22;9563;49.240;9.088;2022-09-25T11:01:12;14.30;99.90
18868;DHT22;9563;49.240;9.088;2022-09-25T11:03:46;14.40;99.90
18868;DHT22;9563;49.240;9.088;2022-09-25T11:06:20;14.40;99.90
18868;DHT22;9563;49.240;9.088;2022-09-25T11:08:53;14.50;99.90
18868;DHT22;9563;49.240;9.088;2022-09-25T11:11:21;14.60;99.90
18868;DHT22;9563;49.240;9.088;2022-09-25T11:13:53;14.60;99.90
18868;DHT22;9563;49.240;9.088;2022-09-25T11:16:42;14.70;99.90
18868;DHT22;9563;49.240;9.088;2022-09-25T11:19:12;14.90;99.90
18868;DHT22;9563;49.240;9.088;2022-09-25T11:21:46;15.10;99.90
18868;DHT22;9563;49.240;9.088;2022-09-25T11:24:19;15.20;99.90
18868;DHT22;9563;49.240;9.088;2022-09-25T11:26:51;15.30;99.90
18868;DHT22;9563;49.240;9.088;2022-09-25T11:29:24;15.60;99.90
18868;DHT22;9563;49.240;9.088;2022-09-25T11:32:02;15.70;99.90
18868;DHT22;9563;49.240;9.088;2022-09-25T11:34:46;15.90;99.90
18868;DHT22;9563;49.240;9.088;2022-09-25T11:37:23;15.90;99.90
18868;DHT22;9563;49.240;9.088;2022-09-25T11:39:59;15.80;99.90
18868;DHT22;9563;49.240;9.088;2022-09-25T11:42:52;15.80;99.90
18868;DHT22;9563;49.240;9.088;2022-09-25T11:45:24;16.00;99.90
18868;DHT22;9563;49.240;9.088;2022-09-25T11:48:01;16.30;99.90
18868;DHT22;9563;49.240;9.088;2022-09-25T11:50:41;16.60;99.90
18868;DHT22;9563;49.240;9.088;2022-09-25T11:53:14;16.90;99.90
18868;DHT22;9563;49.240;9.088;2022-09-25T11:56:05;17.00;99.90
18868;DHT22;9563;49.240;9.088;2022-09-25T11:58:56;17.20;99.90
18868;DHT22;9563;49.240;9.088;2022-09-25T12:01:30;17.10;99.90
18868;DHT22;9563;49.240;9.088;2022-09-25T12:04:30;16.90;99.90
18868;DHT22;9563;49.240;9.088;2022-09-25T12:07:13;16.70;99.90
18868;DHT22;9563;49.240;9.088;2022-09-25T12:10:06;16.40;99.90
18868;DHT22;9563;49.240;9.088;2022-09-25T12:12:41;16.30;99.90
18868;DHT22;9563;49.240;9.088;2022-09-25T12:15:16;16.30;99.90
18868;DHT22;9563;49.240;9.088;2022-09-25T12:17:53;16.20;99.90
18868;DHT22;9563;49.240;9.088;2022-09-25T12:20:28;16.00;99.90
18868;DHT22;9563;49.240;9.088;2022-09-25T12:23:08;15.80;99.90
18868;DHT22;9563;49.240;9.088;2022-09-25T12:25:51;15.60;99.90
18868;DHT22;9563;49.240;9.088;2022-09-25T12:28:28;15.40;99.90
18868;DHT22;9563;49.240;9.088;2022-09-25T12:31:04;15.30;99.90
18868;DHT22;9563;49.240;9.088;2022-09-25T12:33:39;15.30;99.90
18868;DHT22;9563;49.240;9.088;2022-09-25T12:36:13;15.30;99.90
18868;DHT22;9563;49.240;9.088;2022-09-25T12:38:50;15.40;99.90
18868;DHT22;9563;49.240;9.088;2022-09-25T12:41:25;15.40;99.90
18868;DHT22;9563;49.240;9.088;2022-09-25T12:43:59;15.40;99.90
18868;DHT22;9563;49.240;9.088;2022-09-25T12:46:30;15.40;99.90
18868;DHT22;9563;49.240;9.088;2022-09-25T12:49:03;15.30;99.90
18868;DHT22;9563;49.240;9.088;2022-09-25T12:51:37;15.20;99.90
18868;DHT22;9563;49.240;9.088;2022-09-25T12:54:12;15.10;99.90
18868;DHT22;9563;49.240;9.088;2022-09-25T12:56:46;15.10;99.90
18868;DHT22;9563;49.240;9.088;2022-09-25T12:59:16;15.20;99.90
18868;DHT22;9563;49.240;9.088;2022-09-25T13:01:48;15.20;99.90
18868;DHT22;9563;49.240;9.088;2022-09-25T13:04:34;15.30;99.90
18868;DHT22;9563;49.240;9.088;2022-09-25T13:07:13;15.40;99.90
18868;DHT22;9563;49.240;9.088;2022-09-25T13:09:42;15.40;99.90
18868;DHT22;9563;49.240;9.088;2022-09-25T13:12:18;15.40;99.90
18868;DHT22;9563;49.240;9.088;2022-09-25T13:14:55;15.30;99.90
18868;DHT22;9563;49.240;9.088;2022-09-25T13:17:23;15.30;99.90
18868;DHT22;9563;49.240;9.088;2022-09-25T13:19:50;15.30;99.90
18868;DHT22;9563;49.240;9.088;2022-09-25T13:22:20;15.20;99.90
18868;DHT22;9563;49.240;9.088;2022-09-25T13:24:51;15.10;99.90
18868;DHT22;9563;49.240;9.088;2022-09-25T13:27:22;15.10;99.90
18868;DHT22;9563;49.240;9.088;2022-09-25T13:29:56;15.00;99.90
18868;DHT22;9563;49.240;9.088;2022-09-25T13:32:26;14.90;99.90
18868;DHT22;9563;49.240;9.088;2022-09-25T13:34:59;14.90;99.90
18868;DHT22;9563;49.240;9.088;2022-09-25T13:37:31;14.90;99.90
18868;DHT22;9563;49.240;9.088;2022-09-25T13:40:00;15.00;99.90
18868;DHT22;9563;49.240;9.088;2022-09-25T13:42:50;14.90;99.90
18868;DHT22;9563;49.240;9.088;2022-09-25T13:45:29;14.90;99.90
18868;DHT22;9563;49.240;9.088;2022-09-25T13:48:00;14.90;99.90
18868;DHT22;9563;49.240;9.088;2022-09-25T13:50:37;14.80;99.90
18868;DHT22;9563;49.240;9.088;2022-09-25T13:53:27;14.80;99.90
18868;DHT22;9563;49.240;9.088;2022-09-25T13:56:16;14.80;99.90
18868;DHT22;9563;49.240;9.088;2022-09-25T14:01:47;14.90;99.90
18868;DHT22;9563;49.240;9.088;2022-09-25T14:04:28;14.90;99.90
18868;DHT22;9563;49.240;9.088;2022-09-25T14:07:04;14.90;99.90
18868;DHT22;9563;49.240;9.088;2022-09-25T14:09:33;15.00;99.90
18868;DHT22;9563;49.240;9.088;2022-09-25T14:12:07;15.00;99.90
18868;DHT22;9563;49.240;9.088;2022-09-25T14:14:42;14.90;99.90
18868;DHT22;9563;49.240;9.088;2022-09-25T14:17:17;15.00;99.90
18868;DHT22;9563;49.240;9.088;2022-09-25T14:19:47;15.00;99.90
18868;DHT22;9563;49.240;9.088;2022-09-25T14:22:20;15.10;99.90
18868;DHT22;9563;49.240;9.088;2022-09-25T14:24:50;15.20;99.90
18868;DHT22;9563;49.240;9.088;2022-09-25T14:27:21;15.40;99.90
18868;DHT22;9563;49.240;9.088;2022-09-25T14:29:50;15.50;99.90
18868;DHT22;9563;49.240;9.088;2022-09-25T14:32:29;15.70;99.90
18868;DHT22;9563;49.240;9.088;2022-09-25T14:35:14;15.70;99.90
18868;DHT22;9563;49.240;9.088;2022-09-25T14:41:01;15.60;99.90
18868;DHT22;9563;49.240;9.088;2022-09-25T14:43:44;15.60;99.90
18868;DHT22;9563;49.240;9.088;2022-09-25T14:46:15;15.70;99.90
18868;DHT22;9563;49.240;9.088;2022-09-25T14:48:47;15.80;99.90
18868;DHT22;9563;49.240;9.088;2022-09-25T14:51:20;15.80;99.90
18868;DHT22;9563;49.240;9.088;2022-09-25T14:53:51;15.80;99.90
18868;DHT22;9563;49.240;9.088;2022-09-25T14:56:21;15.70;99.90
18868;DHT22;9563;49.240;9.088;2022-09-25T14:58:52;15.60;99.90
18868;DHT22;9563;49.240;9.088;2022-09-25T15:01:24;15.60;99.90
18868;DHT22;9563;49.240;9.088;2022-09-25T15:03:55;15.50;99.90
18868;DHT22;9563;49.240;9.088;2022-09-25T15:06:25;15.40;99.90
18868;DHT22;9563;49.240;9.088;2022-09-25T15:08:54;15.30;99.90
18868;DHT22;9563;49.240;9.088;2022-09-25T15:11:24;15.30;99.90
18868;DHT22;9563;49.240;9.088;2022-09-25T15:13:54;15.10;99.90
18868;DHT22;9563;49.240;9.088;2022-09-25T15:16:23;15.00;99.90
18868;DHT22;9563;49.240;9.088;2022-09-25T15:19:16;14.90;99.90
18868;DHT22;9563;49.240;9.088;2022-09-25T15:21:45;14.80;99.90
18868;DHT22;9563;49.240;9.088;2022-09-25T15:24:16;14.70;99.90
18868;DHT22;9563;49.240;9.088;2022-09-25T15:26:48;14.70;99.90
18868;DHT22;9563;49.240;9.088;2022-09-25T15:29:17;14.70;99.90
18868;DHT22;9563;49.240;9.088;2022-09-25T15:31:46;14.70;99.90
18868;DHT22;9563;49.240;9.088;2022-09-25T15:34:19;14.70;99.90
18868;DHT22;9563;49.240;9.088;2022-09-25T15:36:49;14.80;99.90
18868;DHT22;9563;49.240;9.088;2022-09-25T15:39:20;14.80;99.90
18868;DHT22;9563;49.240;9.088;2022-09-25T15:41:49;14.80;99.90
18868;DHT22;9563;49.240;9.088;2022-09-25T15:44:21;14.90;99.90
18868;DHT22;9563;49.240;9.088;2022-09-25T15:46:49;14.90;99.90
18868;DHT22;9563;49.240;9.088;2022-09-25T15:49:19;14.80;99.90
18868;DHT22;9563;49.240;9.088;2022-09-25T15:51:50;14.80;99.90
18868;DHT22;9563;49.240;9.088;2022-09-25T15:54:28;14.80;99.90
18868;DHT22;9563;49.240;9.088;2022-09-25T15:57:00;14.70;99.90
18868;DHT22;9563;49.240;9.088;2022-09-25T15:59:30;14.70;99.90
18868;DHT22;9563;49.240;9.088;2022-09-25T16:02:03;14.70;99.90
18868;DHT22;9563;49.240;9.088;2022-09-25T16:04:52;14.70;99.90
18868;DHT22;9563;49.240;9.088;2022-09-25T16:07:21;14.70;99.90
18868;DHT22;9563;49.240;9.088;2022-09-25T16:09:50;14.60;99.90
18868;DHT22;9563;49.240;9.088;2022-09-25T16:12:21;14.50;99.90
18868;DHT22;9563;49.240;9.088;2022-09-25T16:14:53;14.50;99.90
18868;DHT22;9563;49.240;9.088;2022-09-25T16:17:23;14.40;99.90
18868;DHT22;9563;49.240;9.088;2022-09-25T16:19:58;14.30;99.90
18868;DHT22;9563;49.240;9.088;2022-09-25T16:22:26;14.30;99.90
18868;DHT22;9563;49.240;9.088;2022-09-25T16:24:56;14.20;99.90